sensor_id;sensor_type;location;lat;lon;timestamp;P1;durP1;ratioP1;P2;durP2;ratioP2
25015;SDS011;13029;46.286;7.488;2022-12-18T00:01:15;2.95;;;2.03;;
25015;SDS011;13029;46.286;7.488;2022-12-18T00:06:13;1.95;;;1.48;;
25015;SDS011;13029;46.286;7.488;2022-12-18T00:08:39;3.03;;;1.73;;
25015;SDS011;13029;46.286;7.488;2022-12-18T00:11:10;3.05;;;1.67;;
25015;SDS011;13029;46.286;7.488;2022-12-18T00:13:37;2.15;;;1.70;;
25015;SDS011;13029;46.286;7.488;2022-12-18T00:16:03;2.15;;;1.58;;
25015;SDS011;13029;46.286;7.488;2022-12-18T00:18:29;3.22;;;1.35;;
25015;SDS011;13029;46.286;7.488;2022-12-18T00:20:57;2.38;;;1.92;;
25015;SDS011;13029;46.286;7.488;2022-12-18T00:23:23;3.45;;;2.13;;
25015;SDS011;13029;46.286;7.488;2022-12-18T00:25:49;1.98;;;1.70;;
25015;SDS011;13029;46.286;7.488;2022-12-18T00:28:14;3.08;;;1.70;;
25015;SDS011;13029;46.286;7.488;2022-12-18T00:30:39;2.28;;;1.67;;
25015;SDS011;13029;46.286;7.488;2022-12-18T00:33:05;2.85;;;1.95;;
25015;SDS011;13029;46.286;7.488;2022-12-18T00:35:31;3.22;;;1.60;;
25015;SDS011;13029;46.286;7.488;2022-12-18T00:37:56;3.67;;;2.13;;
25015;SDS011;13029;46.286;7.488;2022-12-18T00:40:22;2.60;;;1.90;;
25015;SDS011;13029;46.286;7.488;2022-12-18T00:42:47;2.22;;;1.50;;
25015;SDS011;13029;46.286;7.488;2022-12-18T00:45:29;3.22;;;1.73;;
25015;SDS011;13029;46.286;7.488;2022-12-18T00:47:55;1.80;;;1.60;;
25015;SDS011;13029;46.286;7.488;2022-12-18T00:50:21;1.80;;;1.40;;
25015;SDS011;13029;46.286;7.488;2022-12-18T00:52:48;3.58;;;1.83;;
25015;SDS011;13029;46.286;7.488;2022-12-18T00:55:13;2.20;;;1.48;;
25015;SDS011;13029;46.286;7.488;2022-12-18T00:57:39;2.05;;;1.42;;
25015;SDS011;13029;46.286;7.488;2022-12-18T01:00:05;1.95;;;1.45;;
25015;SDS011;13029;46.286;7.488;2022-12-18T01:02:32;1.30;;;1.02;;
25015;SDS011;13029;46.286;7.488;2022-12-18T01:04:57;2.15;;;1.40;;
25015;SDS011;13029;46.286;7.488;2022-12-18T01:07:23;1.45;;;1.20;;
25015;SDS011;13029;46.286;7.488;2022-12-18T01:09:48;1.23;;;1.13;;
25015;SDS011;13029;46.286;7.488;2022-12-18T01:12:14;2.75;;;1.33;;
25015;SDS011;13029;46.286;7.488;2022-12-18T01:14:39;2.03;;;1.65;;
25015;SDS011;13029;46.286;7.488;2022-12-18T01:17:04;2.85;;;1.80;;
25015;SDS011;13029;46.286;7.488;2022-12-18T01:19:30;3.65;;;1.70;;
25015;SDS011;13029;46.286;7.488;2022-12-18T01:21:55;2.22;;;1.55;;
25015;SDS011;13029;46.286;7.488;2022-12-18T01:24:21;5.30;;;1.58;;
25015;SDS011;13029;46.286;7.488;2022-12-18T01:26:46;1.80;;;1.30;;
25015;SDS011;13029;46.286;7.488;2022-12-18T01:29:11;1.40;;;1.27;;
25015;SDS011;13029;46.286;7.488;2022-12-18T01:31:37;1.85;;;1.58;;
25015;SDS011;13029;46.286;7.488;2022-12-18T01:34:03;1.88;;;1.50;;
25015;SDS011;13029;46.286;7.488;2022-12-18T01:36:30;1.67;;;1.33;;
25015;SDS011;13029;46.286;7.488;2022-12-18T01:38:58;2.30;;;1.42;;
25015;SDS011;13029;46.286;7.488;2022-12-18T01:41:26;1.98;;;1.50;;
25015;SDS011;13029;46.286;7.488;2022-12-18T01:47:20;1.65;;;1.30;;
25015;SDS011;13029;46.286;7.488;2022-12-18T01:49:54;2.15;;;1.20;;
25015;SDS011;13029;46.286;7.488;2022-12-18T01:52:21;2.33;;;1.27;;
25015;SDS011;13029;46.286;7.488;2022-12-18T01:54:48;1.90;;;1.50;;
25015;SDS011;13029;46.286;7.488;2022-12-18T01:57:13;1.55;;;1.23;;
25015;SDS011;13029;46.286;7.488;2022-12-18T01:59:39;1.30;;;1.20;;
25015;SDS011;13029;46.286;7.488;2022-12-18T02:02:06;2.40;;;1.45;;
25015;SDS011;13029;46.286;7.488;2022-12-18T02:04:32;3.78;;;1.30;;
25015;SDS011;13029;46.286;7.488;2022-12-18T02:07:06;2.60;;;1.77;;
25015;SDS011;13029;46.286;7.488;2022-12-18T02:09:35;4.30;;;1.20;;
25015;SDS011;13029;46.286;7.488;2022-12-18T02:12:09;1.67;;;1.35;;
25015;SDS011;13029;46.286;7.488;2022-12-18T02:22:39;2.00;;;1.05;;
25015;SDS011;13029;46.286;7.488;2022-12-18T02:28:06;1.23;;;1.00;;
25015;SDS011;13029;46.286;7.488;2022-12-18T02:30:34;1.73;;;1.20;;
25015;SDS011;13029;46.286;7.488;2022-12-18T02:33:01;1.73;;;1.20;;
25015;SDS011;13029;46.286;7.488;2022-12-18T02:35:28;2.15;;;1.55;;
25015;SDS011;13029;46.286;7.488;2022-12-18T02:37:54;1.10;;;1.00;;
25015;SDS011;13029;46.286;7.488;2022-12-18T02:40:20;2.15;;;1.42;;
25015;SDS011;13029;46.286;7.488;2022-12-18T02:42:47;1.27;;;1.00;;
25015;SDS011;13029;46.286;7.488;2022-12-18T02:45:12;1.10;;;1.00;;
25015;SDS011;13029;46.286;7.488;2022-12-18T02:47:39;0.82;;;0.82;;
25015;SDS011;13029;46.286;7.488;2022-12-18T02:53:03;1.02;;;0.93;;
25015;SDS011;13029;46.286;7.488;2022-12-18T03:03:53;1.33;;;0.98;;
25015;SDS011;13029;46.286;7.488;2022-12-18T03:06:23;1.85;;;1.35;;
25015;SDS011;13029;46.286;7.488;2022-12-18T03:08:58;1.83;;;1.15;;
25015;SDS011;13029;46.286;7.488;2022-12-18T03:11:25;1.30;;;1.10;;
25015;SDS011;13029;46.286;7.488;2022-12-18T03:14:12;1.85;;;1.10;;
25015;SDS011;13029;46.286;7.488;2022-12-18T03:16:40;1.77;;;1.17;;
25015;SDS011;13029;46.286;7.488;2022-12-18T03:19:16;1.30;;;1.17;;
25015;SDS011;13029;46.286;7.488;2022-12-18T03:21:44;1.38;;;1.05;;
25015;SDS011;13029;46.286;7.488;2022-12-18T03:24:11;1.40;;;1.20;;
25015;SDS011;13029;46.286;7.488;2022-12-18T03:26:37;2.40;;;1.10;;
25015;SDS011;13029;46.286;7.488;2022-12-18T03:29:48;1.48;;;1.17;;
25015;SDS011;13029;46.286;7.488;2022-12-18T03:32:20;1.30;;;0.98;;
25015;SDS011;13029;46.286;7.488;2022-12-18T03:34:50;1.13;;;0.90;;
25015;SDS011;13029;46.286;7.488;2022-12-18T03:37:16;1.50;;;1.00;;
25015;SDS011;13029;46.286;7.488;2022-12-18T03:39:41;1.23;;;1.10;;
25015;SDS011;13029;46.286;7.488;2022-12-18T03:55:15;1.20;;;1.10;;
25015;SDS011;13029;46.286;7.488;2022-12-18T03:57:40;1.13;;;1.02;;
25015;SDS011;13029;46.286;7.488;2022-12-18T04:00:08;1.35;;;0.80;;
25015;SDS011;13029;46.286;7.488;2022-12-18T04:02:36;1.15;;;0.80;;
25015;SDS011;13029;46.286;7.488;2022-12-18T04:05:04;1.23;;;1.00;;
25015;SDS011;13029;46.286;7.488;2022-12-18T04:07:30;1.05;;;0.98;;
25015;SDS011;13029;46.286;7.488;2022-12-18T04:09:56;1.70;;;1.27;;
25015;SDS011;13029;46.286;7.488;2022-12-18T04:12:24;2.53;;;1.05;;
25015;SDS011;13029;46.286;7.488;2022-12-18T04:14:51;1.50;;;1.10;;
25015;SDS011;13029;46.286;7.488;2022-12-18T04:17:16;2.63;;;1.20;;
25015;SDS011;13029;46.286;7.488;2022-12-18T04:19:42;1.25;;;1.13;;
25015;SDS011;13029;46.286;7.488;2022-12-18T04:22:08;1.35;;;1.02;;
25015;SDS011;13029;46.286;7.488;2022-12-18T04:24:34;1.40;;;1.17;;
25015;SDS011;13029;46.286;7.488;2022-12-18T04:27:00;1.98;;;1.08;;
25015;SDS011;13029;46.286;7.488;2022-12-18T04:29:25;2.50;;;1.23;;
25015;SDS011;13029;46.286;7.488;2022-12-18T04:31:50;1.10;;;1.00;;
25015;SDS011;13029;46.286;7.488;2022-12-18T04:34:16;1.20;;;1.00;;
25015;SDS011;13029;46.286;7.488;2022-12-18T04:36:41;1.75;;;1.00;;
25015;SDS011;13029;46.286;7.488;2022-12-18T04:39:06;1.17;;;1.05;;
25015;SDS011;13029;46.286;7.488;2022-12-18T04:41:32;1.80;;;1.10;;
25015;SDS011;13029;46.286;7.488;2022-12-18T04:43:57;1.33;;;1.10;;
25015;SDS011;13029;46.286;7.488;2022-12-18T04:46:22;1.63;;;1.10;;
25015;SDS011;13029;46.286;7.488;2022-12-18T04:48:48;1.25;;;1.10;;
25015;SDS011;13029;46.286;7.488;2022-12-18T04:51:13;1.27;;;1.10;;
25015;SDS011;13029;46.286;7.488;2022-12-18T04:53:38;1.08;;;0.80;;
25015;SDS011;13029;46.286;7.488;2022-12-18T04:58:30;1.10;;;1.00;;
25015;SDS011;13029;46.286;7.488;2022-12-18T05:00:55;1.30;;;1.10;;
25015;SDS011;13029;46.286;7.488;2022-12-18T05:03:20;1.30;;;1.00;;
25015;SDS011;13029;46.286;7.488;2022-12-18T05:05:49;2.53;;;1.15;;
25015;SDS011;13029;46.286;7.488;2022-12-18T05:08:15;1.77;;;1.20;;
25015;SDS011;13029;46.286;7.488;2022-12-18T05:10:40;1.00;;;0.95;;
25015;SDS011;13029;46.286;7.488;2022-12-18T05:13:05;1.10;;;0.98;;
25015;SDS011;13029;46.286;7.488;2022-12-18T05:15:31;1.70;;;1.20;;
25015;SDS011;13029;46.286;7.488;2022-12-18T05:17:57;1.50;;;1.02;;
25015;SDS011;13029;46.286;7.488;2022-12-18T05:20:23;0.95;;;0.90;;
25015;SDS011;13029;46.286;7.488;2022-12-18T05:22:49;1.52;;;1.10;;
25015;SDS011;13029;46.286;7.488;2022-12-18T05:25:15;1.33;;;1.02;;
25015;SDS011;13029;46.286;7.488;2022-12-18T05:27:40;0.90;;;0.80;;
25015;SDS011;13029;46.286;7.488;2022-12-18T05:30:06;0.98;;;0.90;;
25015;SDS011;13029;46.286;7.488;2022-12-18T05:32:32;1.38;;;1.00;;
25015;SDS011;13029;46.286;7.488;2022-12-18T05:34:58;1.73;;;1.40;;
25015;SDS011;13029;46.286;7.488;2022-12-18T05:37:23;3.47;;;1.20;;
25015;SDS011;13029;46.286;7.488;2022-12-18T05:39:48;1.65;;;1.08;;
25015;SDS011;13029;46.286;7.488;2022-12-18T05:42:13;1.17;;;1.00;;
25015;SDS011;13029;46.286;7.488;2022-12-18T05:44:39;1.10;;;1.00;;
25015;SDS011;13029;46.286;7.488;2022-12-18T05:47:04;1.73;;;1.00;;
25015;SDS011;13029;46.286;7.488;2022-12-18T05:49:29;1.30;;;1.15;;
25015;SDS011;13029;46.286;7.488;2022-12-18T05:51:55;1.15;;;1.05;;
25015;SDS011;13029;46.286;7.488;2022-12-18T05:54:20;1.27;;;1.00;;
25015;SDS011;13029;46.286;7.488;2022-12-18T05:56:46;1.02;;;0.90;;
25015;SDS011;13029;46.286;7.488;2022-12-18T05:59:12;2.35;;;1.10;;
25015;SDS011;13029;46.286;7.488;2022-12-18T06:01:37;1.48;;;1.30;;
25015;SDS011;13029;46.286;7.488;2022-12-18T06:04:02;2.10;;;1.45;;
25015;SDS011;13029;46.286;7.488;2022-12-18T06:06:28;1.20;;;1.10;;
25015;SDS011;13029;46.286;7.488;2022-12-18T06:08:54;1.40;;;1.10;;
25015;SDS011;13029;46.286;7.488;2022-12-18T06:11:21;1.30;;;1.00;;
25015;SDS011;13029;46.286;7.488;2022-12-18T06:13:51;1.52;;;0.98;;
25015;SDS011;13029;46.286;7.488;2022-12-18T06:16:17;2.00;;;1.20;;
25015;SDS011;13029;46.286;7.488;2022-12-18T06:18:43;2.38;;;1.33;;
25015;SDS011;13029;46.286;7.488;2022-12-18T06:21:08;1.55;;;1.25;;
25015;SDS011;13029;46.286;7.488;2022-12-18T06:23:33;1.77;;;1.17;;
25015;SDS011;13029;46.286;7.488;2022-12-18T06:26:03;0.90;;;0.90;;
25015;SDS011;13029;46.286;7.488;2022-12-18T06:28:30;1.15;;;1.10;;
25015;SDS011;13029;46.286;7.488;2022-12-18T06:30:55;1.65;;;1.10;;
25015;SDS011;13029;46.286;7.488;2022-12-18T06:33:20;1.40;;;0.98;;
25015;SDS011;13029;46.286;7.488;2022-12-18T06:35:46;1.10;;;1.00;;
25015;SDS011;13029;46.286;7.488;2022-12-18T06:38:11;1.48;;;1.10;;
25015;SDS011;13029;46.286;7.488;2022-12-18T06:40:37;1.17;;;1.00;;
25015;SDS011;13029;46.286;7.488;2022-12-18T06:43:04;1.48;;;1.00;;
25015;SDS011;13029;46.286;7.488;2022-12-18T06:45:29;2.38;;;0.90;;
25015;SDS011;13029;46.286;7.488;2022-12-18T06:47:54;1.00;;;0.90;;
25015;SDS011;13029;46.286;7.488;2022-12-18T06:50:20;1.08;;;0.90;;
25015;SDS011;13029;46.286;7.488;2022-12-18T06:52:45;0.93;;;0.93;;
25015;SDS011;13029;46.286;7.488;2022-12-18T06:55:11;0.77;;;0.77;;
25015;SDS011;13029;46.286;7.488;2022-12-18T06:57:36;1.27;;;0.98;;
25015;SDS011;13029;46.286;7.488;2022-12-18T07:00:04;1.58;;;1.20;;
25015;SDS011;13029;46.286;7.488;2022-12-18T07:02:30;2.15;;;0.98;;
25015;SDS011;13029;46.286;7.488;2022-12-18T07:04:55;1.92;;;1.30;;
25015;SDS011;13029;46.286;7.488;2022-12-18T07:07:21;1.90;;;1.08;;
25015;SDS011;13029;46.286;7.488;2022-12-18T07:09:46;2.38;;;1.20;;
25015;SDS011;13029;46.286;7.488;2022-12-18T07:12:11;1.20;;;1.10;;
25015;SDS011;13029;46.286;7.488;2022-12-18T07:14:37;1.48;;;1.20;;
25015;SDS011;13029;46.286;7.488;2022-12-18T07:17:02;1.40;;;1.02;;
25015;SDS011;13029;46.286;7.488;2022-12-18T07:19:27;1.90;;;1.10;;
25015;SDS011;13029;46.286;7.488;2022-12-18T07:21:53;1.23;;;1.05;;
25015;SDS011;13029;46.286;7.488;2022-12-18T07:24:19;2.33;;;0.93;;
25015;SDS011;13029;46.286;7.488;2022-12-18T07:26:47;1.23;;;1.00;;
25015;SDS011;13029;46.286;7.488;2022-12-18T07:29:12;2.70;;;1.20;;
25015;SDS011;13029;46.286;7.488;2022-12-18T07:31:38;1.67;;;1.20;;
25015;SDS011;13029;46.286;7.488;2022-12-18T07:34:03;1.45;;;1.27;;
25015;SDS011;13029;46.286;7.488;2022-12-18T07:36:28;1.50;;;1.10;;
25015;SDS011;13029;46.286;7.488;2022-12-18T07:38:54;2.22;;;1.17;;
25015;SDS011;13029;46.286;7.488;2022-12-18T07:41:20;1.45;;;1.00;;
25015;SDS011;13029;46.286;7.488;2022-12-18T07:43:45;1.90;;;1.20;;
25015;SDS011;13029;46.286;7.488;2022-12-18T07:46:11;1.92;;;1.17;;
25015;SDS011;13029;46.286;7.488;2022-12-18T07:48:39;1.67;;;1.10;;
25015;SDS011;13029;46.286;7.488;2022-12-18T07:51:05;1.38;;;1.10;;
25015;SDS011;13029;46.286;7.488;2022-12-18T07:53:31;1.38;;;1.27;;
25015;SDS011;13029;46.286;7.488;2022-12-18T07:55:58;1.88;;;1.30;;
25015;SDS011;13029;46.286;7.488;2022-12-18T07:58:25;2.15;;;1.17;;
25015;SDS011;13029;46.286;7.488;2022-12-18T08:00:50;1.58;;;1.23;;
25015;SDS011;13029;46.286;7.488;2022-12-18T08:03:16;3.47;;;1.40;;
25015;SDS011;13029;46.286;7.488;2022-12-18T08:05:41;1.35;;;1.10;;
25015;SDS011;13029;46.286;7.488;2022-12-18T08:08:06;1.30;;;1.02;;
25015;SDS011;13029;46.286;7.488;2022-12-18T08:10:31;1.23;;;1.13;;
25015;SDS011;13029;46.286;7.488;2022-12-18T08:12:57;1.50;;;1.00;;
25015;SDS011;13029;46.286;7.488;2022-12-18T08:15:22;1.95;;;1.15;;
25015;SDS011;13029;46.286;7.488;2022-12-18T08:17:47;1.33;;;1.00;;
25015;SDS011;13029;46.286;7.488;2022-12-18T08:20:13;0.90;;;0.90;;
25015;SDS011;13029;46.286;7.488;2022-12-18T08:22:39;1.25;;;1.15;;
25015;SDS011;13029;46.286;7.488;2022-12-18T08:25:06;1.45;;;1.10;;
25015;SDS011;13029;46.286;7.488;2022-12-18T08:27:31;1.88;;;1.13;;
25015;SDS011;13029;46.286;7.488;2022-12-18T08:29:57;1.20;;;1.00;;
25015;SDS011;13029;46.286;7.488;2022-12-18T08:32:23;0.88;;;0.77;;
25015;SDS011;13029;46.286;7.488;2022-12-18T08:34:49;0.77;;;0.77;;
25015;SDS011;13029;46.286;7.488;2022-12-18T08:37:14;1.17;;;1.05;;
25015;SDS011;13029;46.286;7.488;2022-12-18T08:39:39;1.30;;;0.77;;
25015;SDS011;13029;46.286;7.488;2022-12-18T08:42:04;1.33;;;0.93;;
25015;SDS011;13029;46.286;7.488;2022-12-18T08:44:48;0.85;;;0.80;;
25015;SDS011;13029;46.286;7.488;2022-12-18T08:47:13;1.23;;;0.93;;
25015;SDS011;13029;46.286;7.488;2022-12-18T08:49:39;1.08;;;0.90;;
25015;SDS011;13029;46.286;7.488;2022-12-18T08:52:04;1.95;;;0.90;;
25015;SDS011;13029;46.286;7.488;2022-12-18T08:54:29;1.10;;;0.90;;
25015;SDS011;13029;46.286;7.488;2022-12-18T08:56:55;0.77;;;0.77;;
25015;SDS011;13029;46.286;7.488;2022-12-18T08:59:20;0.90;;;0.75;;
25015;SDS011;13029;46.286;7.488;2022-12-18T09:01:46;0.50;;;0.50;;
25015;SDS011;13029;46.286;7.488;2022-12-18T09:04:12;0.93;;;0.60;;
25015;SDS011;13029;46.286;7.488;2022-12-18T09:06:38;1.20;;;0.60;;
25015;SDS011;13029;46.286;7.488;2022-12-18T09:09:04;0.73;;;0.73;;
25015;SDS011;13029;46.286;7.488;2022-12-18T09:11:30;0.75;;;0.68;;
25015;SDS011;13029;46.286;7.488;2022-12-18T09:13:56;1.10;;;0.85;;
25015;SDS011;13029;46.286;7.488;2022-12-18T09:16:22;0.70;;;0.68;;
25015;SDS011;13029;46.286;7.488;2022-12-18T09:18:48;1.08;;;0.80;;
25015;SDS011;13029;46.286;7.488;2022-12-18T09:21:15;0.73;;;0.70;;
25015;SDS011;13029;46.286;7.488;2022-12-18T09:23:41;1.77;;;1.00;;
25015;SDS011;13029;46.286;7.488;2022-12-18T09:26:07;1.25;;;0.80;;
25015;SDS011;13029;46.286;7.488;2022-12-18T09:28:32;0.75;;;0.70;;
25015;SDS011;13029;46.286;7.488;2022-12-18T09:30:58;1.13;;;0.80;;
25015;SDS011;13029;46.286;7.488;2022-12-18T09:33:23;0.88;;;0.68;;
25015;SDS011;13029;46.286;7.488;2022-12-18T09:35:49;2.25;;;0.68;;
25015;SDS011;13029;46.286;7.488;2022-12-18T09:38:15;1.17;;;0.77;;
25015;SDS011;13029;46.286;7.488;2022-12-18T09:40:44;1.10;;;0.90;;
25015;SDS011;13029;46.286;7.488;2022-12-18T09:43:19;0.93;;;0.70;;
25015;SDS011;13029;46.286;7.488;2022-12-18T09:45:51;1.38;;;0.90;;
25015;SDS011;13029;46.286;7.488;2022-12-18T09:48:21;2.95;;;1.30;;
25015;SDS011;13029;46.286;7.488;2022-12-18T09:50:50;1.48;;;1.30;;
25015;SDS011;13029;46.286;7.488;2022-12-18T09:53:20;3.13;;;1.17;;
25015;SDS011;13029;46.286;7.488;2022-12-18T09:55:48;1.55;;;1.00;;
25015;SDS011;13029;46.286;7.488;2022-12-18T09:58:18;1.15;;;1.00;;
25015;SDS011;13029;46.286;7.488;2022-12-18T10:03:12;1.80;;;1.10;;
25015;SDS011;13029;46.286;7.488;2022-12-18T10:08:18;1.50;;;1.10;;
25015;SDS011;13029;46.286;7.488;2022-12-18T10:10:50;2.00;;;1.10;;
25015;SDS011;13029;46.286;7.488;2022-12-18T10:13:22;2.28;;;1.20;;
25015;SDS011;13029;46.286;7.488;2022-12-18T10:19:16;2.23;;;1.30;;
25015;SDS011;13029;46.286;7.488;2022-12-18T10:27:11;2.03;;;1.08;;
25015;SDS011;13029;46.286;7.488;2022-12-18T10:29:39;0.85;;;0.82;;
25015;SDS011;13029;46.286;7.488;2022-12-18T10:32:06;2.08;;;1.70;;
25015;SDS011;13029;46.286;7.488;2022-12-18T10:34:32;2.03;;;1.60;;
25015;SDS011;13029;46.286;7.488;2022-12-18T10:36:57;1.70;;;1.60;;
25015;SDS011;13029;46.286;7.488;2022-12-18T10:39:25;2.28;;;1.30;;
25015;SDS011;13029;46.286;7.488;2022-12-18T10:41:51;1.63;;;1.10;;
25015;SDS011;13029;46.286;7.488;2022-12-18T10:44:20;2.58;;;0.93;;
25015;SDS011;13029;46.286;7.488;2022-12-18T10:46:48;1.67;;;1.17;;
25015;SDS011;13029;46.286;7.488;2022-12-18T10:49:27;1.38;;;1.15;;
25015;SDS011;13029;46.286;7.488;2022-12-18T10:54:53;2.20;;;1.38;;
25015;SDS011;13029;46.286;7.488;2022-12-18T10:59:55;2.40;;;1.70;;
25015;SDS011;13029;46.286;7.488;2022-12-18T11:02:26;2.30;;;1.90;;
25015;SDS011;13029;46.286;7.488;2022-12-18T11:04:59;3.83;;;1.60;;
25015;SDS011;13029;46.286;7.488;2022-12-18T11:07:25;2.50;;;1.75;;
25015;SDS011;13029;46.286;7.488;2022-12-18T11:09:59;1.90;;;1.25;;
25015;SDS011;13029;46.286;7.488;2022-12-18T11:12:25;2.05;;;1.20;;
25015;SDS011;13029;46.286;7.488;2022-12-18T11:14:54;2.20;;;1.40;;
25015;SDS011;13029;46.286;7.488;2022-12-18T11:19:57;2.28;;;1.30;;
25015;SDS011;13029;46.286;7.488;2022-12-18T11:22:41;3.17;;;1.15;;
25015;SDS011;13029;46.286;7.488;2022-12-18T11:27:41;2.00;;;1.80;;
25015;SDS011;13029;46.286;7.488;2022-12-18T11:30:25;2.35;;;1.25;;
25015;SDS011;13029;46.286;7.488;2022-12-18T11:32:53;2.72;;;2.05;;
25015;SDS011;13029;46.286;7.488;2022-12-18T11:38:22;2.03;;;1.50;;
25015;SDS011;13029;46.286;7.488;2022-12-18T11:40:55;2.50;;;1.50;;
25015;SDS011;13029;46.286;7.488;2022-12-18T11:43:29;1.67;;;1.20;;
25015;SDS011;13029;46.286;7.488;2022-12-18T11:49:13;3.03;;;1.08;;
25015;SDS011;13029;46.286;7.488;2022-12-18T11:54:14;1.10;;;1.00;;
25015;SDS011;13029;46.286;7.488;2022-12-18T11:56:51;2.92;;;1.23;;
25015;SDS011;13029;46.286;7.488;2022-12-18T12:02:47;1.40;;;1.05;;
25015;SDS011;13029;46.286;7.488;2022-12-18T12:13:29;2.60;;;1.20;;
25015;SDS011;13029;46.286;7.488;2022-12-18T12:18:53;2.75;;;1.67;;
25015;SDS011;13029;46.286;7.488;2022-12-18T12:21:39;4.07;;;1.40;;
25015;SDS011;13029;46.286;7.488;2022-12-18T12:24:43;1.80;;;1.20;;
25015;SDS011;13029;46.286;7.488;2022-12-18T12:27:17;3.15;;;2.13;;
25015;SDS011;13029;46.286;7.488;2022-12-18T12:30:00;3.92;;;1.80;;
25015;SDS011;13029;46.286;7.488;2022-12-18T12:40:04;3.25;;;1.45;;
25015;SDS011;13029;46.286;7.488;2022-12-18T12:42:34;4.75;;;1.80;;
25015;SDS011;13029;46.286;7.488;2022-12-18T12:45:28;2.83;;;1.85;;
25015;SDS011;13029;46.286;7.488;2022-12-18T12:47:58;2.75;;;1.52;;
25015;SDS011;13029;46.286;7.488;2022-12-18T12:50:26;2.17;;;1.50;;
25015;SDS011;13029;46.286;7.488;2022-12-18T12:52:53;2.55;;;1.58;;
25015;SDS011;13029;46.286;7.488;2022-12-18T12:55:21;2.10;;;1.35;;
25015;SDS011;13029;46.286;7.488;2022-12-18T13:00:36;2.47;;;1.70;;
25015;SDS011;13029;46.286;7.488;2022-12-18T13:09:18;3.03;;;1.63;;
25015;SDS011;13029;46.286;7.488;2022-12-18T13:11:43;2.65;;;1.80;;
25015;SDS011;13029;46.286;7.488;2022-12-18T13:14:33;3.72;;;2.05;;
25015;SDS011;13029;46.286;7.488;2022-12-18T13:17:14;3.45;;;2.42;;
25015;SDS011;13029;46.286;7.488;2022-12-18T13:19:40;3.17;;;1.48;;
25015;SDS011;13029;46.286;7.488;2022-12-18T13:22:12;5.88;;;1.30;;
25015;SDS011;13029;46.286;7.488;2022-12-18T13:24:49;3.92;;;1.40;;
25015;SDS011;13029;46.286;7.488;2022-12-18T13:33:24;4.00;;;1.45;;
25015;SDS011;13029;46.286;7.488;2022-12-18T13:35:52;3.10;;;1.70;;
25015;SDS011;13029;46.286;7.488;2022-12-18T13:38:20;2.58;;;1.58;;
25015;SDS011;13029;46.286;7.488;2022-12-18T13:46:48;2.10;;;1.35;;
25015;SDS011;13029;46.286;7.488;2022-12-18T13:51:39;3.17;;;1.30;;
25015;SDS011;13029;46.286;7.488;2022-12-18T13:56:45;6.20;;;2.00;;
25015;SDS011;13029;46.286;7.488;2022-12-18T14:01:44;6.05;;;2.35;;
25015;SDS011;13029;46.286;7.488;2022-12-18T14:04:12;5.57;;;2.20;;
25015;SDS011;13029;46.286;7.488;2022-12-18T14:06:49;3.78;;;2.15;;
25015;SDS011;13029;46.286;7.488;2022-12-18T14:09:17;4.47;;;2.28;;
25015;SDS011;13029;46.286;7.488;2022-12-18T14:11:47;6.30;;;2.28;;
25015;SDS011;13029;46.286;7.488;2022-12-18T14:14:14;4.65;;;1.58;;
25015;SDS011;13029;46.286;7.488;2022-12-18T14:16:41;6.07;;;1.85;;
25015;SDS011;13029;46.286;7.488;2022-12-18T14:19:08;4.70;;;2.00;;
25015;SDS011;13029;46.286;7.488;2022-12-18T14:21:37;4.65;;;2.30;;
25015;SDS011;13029;46.286;7.488;2022-12-18T14:24:13;4.97;;;2.10;;
25015;SDS011;13029;46.286;7.488;2022-12-18T14:26:39;3.67;;;2.53;;
25015;SDS011;13029;46.286;7.488;2022-12-18T14:34:37;3.28;;;2.20;;
25015;SDS011;13029;46.286;7.488;2022-12-18T14:37:03;2.78;;;2.13;;
25015;SDS011;13029;46.286;7.488;2022-12-18T14:39:28;3.17;;;2.05;;
25015;SDS011;13029;46.286;7.488;2022-12-18T14:41:54;1.58;;;1.40;;
25015;SDS011;13029;46.286;7.488;2022-12-18T14:44:19;2.55;;;1.73;;
25015;SDS011;13029;46.286;7.488;2022-12-18T14:46:46;3.08;;;1.30;;
25015;SDS011;13029;46.286;7.488;2022-12-18T14:51:49;1.52;;;1.40;;
25015;SDS011;13029;46.286;7.488;2022-12-18T14:54:17;2.60;;;1.60;;
25015;SDS011;13029;46.286;7.488;2022-12-18T14:56:44;2.42;;;1.60;;
25015;SDS011;13029;46.286;7.488;2022-12-18T14:59:24;2.28;;;1.75;;
25015;SDS011;13029;46.286;7.488;2022-12-18T15:04:40;4.93;;;2.20;;
25015;SDS011;13029;46.286;7.488;2022-12-18T15:07:13;1.73;;;1.50;;
25015;SDS011;13029;46.286;7.488;2022-12-18T15:09:42;2.97;;;1.60;;
25015;SDS011;13029;46.286;7.488;2022-12-18T15:15:00;4.00;;;1.80;;
25015;SDS011;13029;46.286;7.488;2022-12-18T15:17:25;2.83;;;1.40;;
25015;SDS011;13029;46.286;7.488;2022-12-18T15:19:52;2.60;;;1.58;;
25015;SDS011;13029;46.286;7.488;2022-12-18T15:24:52;1.50;;;1.30;;
25015;SDS011;13029;46.286;7.488;2022-12-18T15:27:20;4.05;;;1.45;;
25015;SDS011;13029;46.286;7.488;2022-12-18T15:32:32;4.32;;;1.50;;
25015;SDS011;13029;46.286;7.488;2022-12-18T15:35:02;2.80;;;1.33;;
25015;SDS011;13029;46.286;7.488;2022-12-18T15:37:49;1.50;;;1.00;;
25015;SDS011;13029;46.286;7.488;2022-12-18T15:40:19;2.55;;;1.65;;
25015;SDS011;13029;46.286;7.488;2022-12-18T15:42:46;2.35;;;1.27;;
25015;SDS011;13029;46.286;7.488;2022-12-18T15:45:31;2.28;;;1.48;;
25015;SDS011;13029;46.286;7.488;2022-12-18T15:47:57;2.45;;;1.55;;
25015;SDS011;13029;46.286;7.488;2022-12-18T15:50:22;2.60;;;1.77;;
25015;SDS011;13029;46.286;7.488;2022-12-18T15:52:48;4.50;;;2.00;;
25015;SDS011;13029;46.286;7.488;2022-12-18T15:55:15;7.88;;;1.80;;
25015;SDS011;13029;46.286;7.488;2022-12-18T15:58:01;2.50;;;1.60;;
25015;SDS011;13029;46.286;7.488;2022-12-18T16:00:26;5.18;;;1.70;;
25015;SDS011;13029;46.286;7.488;2022-12-18T16:02:52;4.38;;;1.50;;
25015;SDS011;13029;46.286;7.488;2022-12-18T16:05:18;8.27;;;4.70;;
25015;SDS011;13029;46.286;7.488;2022-12-18T16:07:45;3.00;;;2.35;;
25015;SDS011;13029;46.286;7.488;2022-12-18T16:10:10;6.63;;;2.08;;
25015;SDS011;13029;46.286;7.488;2022-12-18T16:12:36;2.83;;;1.38;;
25015;SDS011;13029;46.286;7.488;2022-12-18T16:15:02;4.78;;;1.70;;
25015;SDS011;13029;46.286;7.488;2022-12-18T16:17:29;5.63;;;1.40;;
25015;SDS011;13029;46.286;7.488;2022-12-18T16:19:54;3.50;;;1.48;;
25015;SDS011;13029;46.286;7.488;2022-12-18T16:22:20;1.85;;;1.10;;
25015;SDS011;13029;46.286;7.488;2022-12-18T16:24:47;1.40;;;1.10;;
25015;SDS011;13029;46.286;7.488;2022-12-18T16:27:13;1.75;;;1.30;;
25015;SDS011;13029;46.286;7.488;2022-12-18T16:29:39;2.42;;;1.67;;
25015;SDS011;13029;46.286;7.488;2022-12-18T16:32:04;3.80;;;1.30;;
25015;SDS011;13029;46.286;7.488;2022-12-18T16:34:30;3.38;;;1.33;;
25015;SDS011;13029;46.286;7.488;2022-12-18T16:36:57;2.97;;;1.42;;
25015;SDS011;13029;46.286;7.488;2022-12-18T16:39:24;2.42;;;1.60;;
25015;SDS011;13029;46.286;7.488;2022-12-18T16:41:50;3.05;;;1.48;;
25015;SDS011;13029;46.286;7.488;2022-12-18T16:44:15;3.75;;;1.80;;
25015;SDS011;13029;46.286;7.488;2022-12-18T16:46:41;2.63;;;1.40;;
25015;SDS011;13029;46.286;7.488;2022-12-18T16:49:13;4.15;;;1.52;;
25015;SDS011;13029;46.286;7.488;2022-12-18T16:51:41;2.85;;;1.73;;
25015;SDS011;13029;46.286;7.488;2022-12-18T16:54:07;2.00;;;1.52;;
25015;SDS011;13029;46.286;7.488;2022-12-18T16:56:32;2.25;;;1.60;;
25015;SDS011;13029;46.286;7.488;2022-12-18T16:58:59;2.63;;;1.52;;
25015;SDS011;13029;46.286;7.488;2022-12-18T17:01:26;2.10;;;1.45;;
25015;SDS011;13029;46.286;7.488;2022-12-18T17:03:54;2.20;;;1.30;;
25015;SDS011;13029;46.286;7.488;2022-12-18T17:06:21;2.72;;;1.48;;
25015;SDS011;13029;46.286;7.488;2022-12-18T17:08:47;2.05;;;1.30;;
25015;SDS011;13029;46.286;7.488;2022-12-18T17:11:13;2.05;;;1.20;;
25015;SDS011;13029;46.286;7.488;2022-12-18T17:13:38;2.60;;;1.70;;
25015;SDS011;13029;46.286;7.488;2022-12-18T17:16:05;3.58;;;1.50;;
25015;SDS011;13029;46.286;7.488;2022-12-18T17:18:31;3.58;;;1.52;;